Time;durP1;ratioP1;P1;durP2;ratioP2;P2;SDS_P1;SDS_P2;PMS_P1;PMS_P2;Temp;Humidity;BMP_temperature;BMP_pressure;BME280_temperature;BME280_humidity;BME280_pressure;Samples;Min_cycle;Max_cycle;Signal;HPM_P1;HPM_P2
2021/09/04 00:01:38;;;;;;;;;;;;;;;;;;5008418;28;19925;-72
2021/09/04 00:04:05;;;;;;;;;;;;;;;;;;5011801;28;19937;-71
2021/09/04 00:06:32;;;;;;;;;;;;;;;;;;5007680;28;19933;-71
2021/09/04 00:08:59;;;;;;;;;;;;;;;;;;5006562;28;19926;-71
2021/09/04 00:11:26;;;;;;;;;;;;;;;;;;5005281;28;19932;-72
2021/09/04 00:13:53;;;;;;;;;;;;;;;;;;5012276;28;19930;-71
2021/09/04 00:16:21;;;;;;;;;;;;;;;;;;5015056;28;20538;-70
2021/09/04 00:18:48;;;;;;;;;;;;;;;;;;5008922;28;19933;-71
2021/09/04 00:21:15;;;;;;;;;;;;;;;;;;5010365;28;19944;-71
2021/09/04 00:23:42;;;;;;;;;;;;;;;;;;5013253;28;19925;-72
2021/09/04 00:26:09;;;;;;;;;;;;;;;;;;5012230;28;19925;-71
2021/09/04 00:28:36;;;;;;;;;;;;;;;;;;5014517;28;19926;-71
2021/09/04 00:31:03;;;;;;;;;;;;;;;;;;5006469;28;19932;-71
2021/09/04 00:33:30;;;;;;;;;;;;;;;;;;5014092;28;19926;-72
2021/09/04 00:35:57;;;;;;;;;;;;;;;;;;5008320;28;20310;-71
2021/09/04 00:38:24;;;;;;;;;;;;;;;;;;5009946;28;19925;-71
2021/09/04 00:40:51;;;;;;;;;;;;;;;;;;5001168;28;19935;-71
2021/09/04 00:43:18;;;;;;;;;;;;;;;;;;5007595;28;19940;-71
2021/09/04 00:45:45;;;;;;;;;;;;;;;;;;5007344;28;20320;-71
2021/09/04 00:48:12;;;;;;;;;;;;;;;;;;5008506;28;19932;-71
2021/09/04 00:50:39;;;;;;;;;;;;;;;;;;5004311;28;19932;-71
2021/09/04 00:53:06;;;;;;;;;;;;;;;;;;5000939;28;19929;-71
2021/09/04 00:55:33;;;;;;;;;;;;;;;;;;5010772;28;19967;-71
2021/09/04 00:58:00;;;;;;;;;;;;;;;;;;5009752;28;19926;-71
2021/09/04 01:00:27;;;;;;;;;;;;;;;;;;5008938;28;19925;-71
2021/09/04 01:02:54;;;;;;;;;;;;;;;;;;5004182;28;19933;-71
2021/09/04 01:05:21;;;;;;;;;;;;;;;;;;5008575;28;20381;-71
2021/09/04 01:07:48;;;;;;;;;;;;;;;;;;5008629;28;20384;-71
2021/09/04 01:10:15;;;;;;;;;;;;;;;;;;5004369;28;19926;-71
2021/09/04 01:12:42;;;;;;;;;;;;;;;;;;5006895;28;19926;-71
2021/09/04 01:15:09;;;;;;;;;;;;;;;;;;5005157;28;19932;-71
2021/09/04 01:17:35;;;;;;;;;;;;;;;;;;5006919;28;19946;-71
2021/09/04 01:20:02;;;;;;;;;;;;;;;;;;5003950;28;19925;-72
2021/09/04 01:22:29;;;;;;;;;;;;;;;;;;5008543;28;19927;-71
2021/09/04 01:24:56;;;;;;;;;;;;;;;;;;5006522;28;20377;-71
2021/09/04 01:27:23;;;;;;;;;;;;;;;;;;5006761;28;19937;-71
2021/09/04 01:29:50;;;;;;;;;;;;;;;;;;5006031;28;19941;-72
2021/09/04 01:32:17;;;;;;;;;;;;;;;;;;5010908;28;19925;-71
2021/09/04 01:34:44;;;;;;;;;;;;;;;;;;5004818;28;20414;-71
2021/09/04 01:37:11;;;;;;;;;;;;;;;;;;5007719;28;19933;-71
2021/09/04 01:39:38;;;;;;;;;;;;;;;;;;5005397;28;19925;-72
2021/09/04 01:42:05;;;;;;;;;;;;;;;;;;5008242;28;19925;-72
2021/09/04 01:44:32;;;;;;;;;;;;;;;;;;5012824;28;19925;-70
2021/09/04 01:46:59;;;;;;;;;;;;;;;;;;5011412;28;19926;-70
2021/09/04 01:49:25;;;;;;;;;;;;;;;;;;5012448;28;20422;-70
2021/09/04 01:51:52;;;;;;;;;;;;;;;;;;5010072;28;19932;-70
2021/09/04 01:54:19;;;;;;;;;;;;;;;;;;5009880;28;19932;-70
2021/09/04 01:56:46;;;;;;;;;;;;;;;;;;5011309;28;19941;-70
2021/09/04 01:59:13;;;;;;;;;;;;;;;;;;5014094;28;20424;-70
2021/09/04 02:01:40;;;;;;;;;;;;;;;;;;5010029;28;19932;-70
2021/09/04 02:04:07;;;;;;;;;;;;;;;;;;5017947;28;19926;-70
2021/09/04 02:06:34;;;;;;;;;;;;;;;;;;5015452;28;20310;-70
2021/09/04 02:09:01;;;;;;;;;;;;;;;;;;5016319;28;20420;-70
2021/09/04 02:11:28;;;;;;;;;;;;;;;;;;5010857;28;19932;-70
2021/09/04 02:13:55;;;;;;;;;;;;;;;;;;5012544;28;19925;-70
2021/09/04 02:16:22;;;;;;;;;;;;;;;;;;5011875;28;19925;-71
2021/09/04 02:18:49;;;;;;;;;;;;;;;;;;5013634;28;20304;-70
2021/09/04 02:21:15;;;;;;;;;;;;;;;;;;5010042;28;19932;-70
2021/09/04 02:23:42;;;;;;;;;;;;;;;;;;5007682;28;19926;-70
2021/09/04 02:26:09;;;;;;;;;;;;;;;;;;5015348;28;19931;-70
2021/09/04 02:28:36;;;;;;;;;;;;;;;;;;5011903;28;19932;-71
2021/09/04 02:31:03;;;;;;;;;;;;;;;;;;5017012;28;20420;-70
2021/09/04 02:33:30;;;;;;;;;;;;;;;;;;5013919;28;19930;-71
2021/09/04 02:35:57;;;;;;;;;;;;;;;;;;5013605;28;19929;-71
2021/09/04 02:38:24;;;;;;;;;;;;;;;;;;5013574;28;20309;-71
2021/09/04 02:40:51;;;;;;;;;;;;;;;;;;5011169;28;19926;-71
2021/09/04 02:43:18;;;;;;;;;;;;;;;;;;5014114;28;19932;-71
2021/09/04 02:45:45;;;;;;;;;;;;;;;;;;5015275;28;19925;-71
2021/09/04 02:48:12;;;;;;;;;;;;;;;;;;5010199;28;21083;-71
2021/09/04 02:50:39;;;;;;;;;;;;;;;;;;5008017;28;19929;-71
2021/09/04 02:53:07;;;;;;;;;;;;;;;;;;5010941;28;19930;-70
2021/09/04 02:55:34;;;;;;;;;;;;;;;;;;5010765;28;20352;-71
2021/09/04 02:58:00;;;;;;;;;;;;;;;;;;5009893;28;19926;-71
2021/09/04 03:00:27;;;;;;;;;;;;;;;;;;5012818;28;19926;-70
2021/09/04 03:02:54;;;;;;;;;;;;;;;;;;5003702;28;19925;-71
2021/09/04 03:05:22;;;;;;;;;;;;;;;;;;5016904;28;19932;-70
2021/09/04 03:07:48;;;;;;;;;;;;;;;;;;5005406;28;19932;-71
2021/09/04 03:10:15;;;;;;;;;;;;;;;;;;5011204;28;19925;-70
2021/09/04 03:12:42;;;;;;;;;;;;;;;;;;5010420;28;19931;-71
2021/09/04 03:15:09;;;;;;;;;;;;;;;;;;5008765;28;19972;-70
2021/09/04 03:17:36;;;;;;;;;;;;;;;;;;5011405;28;19925;-71
2021/09/04 03:20:03;;;;;;;;;;;;;;;;;;5008729;28;19947;-71
2021/09/04 03:22:30;;;;;;;;;;;;;;;;;;5014328;28;19925;-71
2021/09/04 03:24:57;;;;;;;;;;;;;;;;;;5012221;28;19933;-70
2021/09/04 03:27:24;;;;;;;;;;;;;;;;;;5007368;28;19941;-71
2021/09/04 03:29:51;;;;;;;;;;;;;;;;;;5005893;28;19939;-71
2021/09/04 03:32:18;;;;;;;;;;;;;;;;;;5006904;28;20549;-70
2021/09/04 03:34:45;;;;;;;;;;;;;;;;;;5006407;28;20276;-70
2021/09/04 03:37:12;;;;;;;;;;;;;;;;;;5008582;28;19925;-70
2021/09/04 03:39:39;;;;;;;;;;;;;;;;;;5007090;28;19933;-70
2021/09/04 03:42:06;;;;;;;;;;;;;;;;;;5023543;23;19933;-64
2021/09/04 03:44:33;;;;;;;;;;;;;;;;;;5039853;28;19931;-67
2021/09/04 03:47:00;;;;;;;;;;;;;;;;;;5043273;28;19936;-65
2021/09/04 03:49:27;;;;;;;;;;;;;;;;;;5050630;28;19925;-65
2021/09/04 03:51:54;;;;;;;;;;;;;;;;;;5039819;28;19925;-65
2021/09/04 03:54:21;;;;;;;;;;;;;;;;;;5018416;28;20301;-64
2021/09/04 03:56:48;;;;;;;;;;;;;;;;;;5026435;28;19932;-67
2021/09/04 03:59:15;;;;;;;;;;;;;;;;;;5020878;28;19929;-65
2021/09/04 04:01:42;;;;;;;;;;;;;;;;;;5025994;28;20392;-65
2021/09/04 04:04:09;;;;;;;;;;;;;;;;;;5027749;28;20301;-66
2021/09/04 04:06:36;;;;;;;;;;;;;;;;;;5030021;28;19925;-65
2021/09/04 04:09:03;;;;;;;;;;;;;;;;;;5020545;28;19948;-65
2021/09/04 04:11:29;;;;;;;;;;;;;;;;;;5023762;28;19931;-65
2021/09/04 04:13:56;;;;;;;;;;;;;;;;;;5022165;28;20229;-65
2021/09/04 04:16:23;;;;;;;;;;;;;;;;;;5024861;28;19925;-65
2021/09/04 04:18:50;;;;;;;;;;;;;;;;;;5023554;28;19929;-65
2021/09/04 04:21:17;;;;;;;;;;;;;;;;;;5021198;28;19925;-65
2021/09/04 04:23:44;;;;;;;;;;;;;;;;;;5022421;28;19933;-65
2021/09/04 04:26:11;;;;;;;;;;;;;;;;;;5026293;28;19929;-65
2021/09/04 04:28:38;;;;;;;;;;;;;;;;;;5026266;28;19929;-66
2021/09/04 04:31:05;;;;;;;;;;;;;;;;;;5029007;28;20397;-66
2021/09/04 04:33:32;;;;;;;;;;;;;;;;;;5024706;28;19933;-67
2021/09/04 04:35:59;;;;;;;;;;;;;;;;;;5023088;28;20105;-65
2021/09/04 04:38:27;;;;;;;;;;;;;;;;;;5025664;28;19926;-67
2021/09/04 04:40:54;;;;;;;;;;;;;;;;;;5024304;28;19933;-67
2021/09/04 04:43:21;;;;;;;;;;;;;;;;;;5028449;28;20427;-67
2021/09/04 04:45:48;;;;;;;;;;;;;;;;;;5022950;28;19932;-67
2021/09/04 04:48:15;;;;;;;;;;;;;;;;;;5026067;28;19929;-67
2021/09/04 04:50:42;;;;;;;;;;;;;;;;;;5022412;28;19979;-67
2021/09/04 04:53:11;;;;;;;;;;;;;;;;;;5026266;28;19925;-64
2021/09/04 04:55:38;;;;;;;;;;;;;;;;;;5023375;28;19932;-68
2021/09/04 04:58:05;;;;;;;;;;;;;;;;;;5029009;28;19933;-66
2021/09/04 05:00:32;;;;;;;;;;;;;;;;;;5029211;28;19925;-65
2021/09/04 05:02:59;;;;;;;;;;;;;;;;;;5020653;28;19925;-66
2021/09/04 05:05:26;;;;;;;;;;;;;;;;;;5017829;28;19925;-66
2021/09/04 05:07:53;;;;;;;;;;;;;;;;;;5024205;28;19931;-66
2021/09/04 05:10:20;;;;;;;;;;;;;;;;;;5021272;28;20001;-66
2021/09/04 05:12:47;;;;;;;;;;;;;;;;;;5018803;28;19925;-64
2021/09/04 05:15:14;;;;;;;;;;;;;;;;;;5021692;28;19925;-65
2021/09/04 05:17:41;;;;;;;;;;;;;;;;;;5029559;28;20388;-66
2021/09/04 05:20:07;;;;;;;;;;;;;;;;;;5027690;28;19935;-66
2021/09/04 05:22:34;;;;;;;;;;;;;;;;;;5034040;28;19976;-66
2021/09/04 05:25:01;;;;;;;;;;;;;;;;;;5033581;28;20285;-66
2021/09/04 05:27:28;;;;;;;;;;;;;;;;;;5031398;28;19929;-66
2021/09/04 05:29:55;;;;;;;;;;;;;;;;;;5034743;28;20016;-66
2021/09/04 05:32:25;;;;;;;;;;;;;;;;;;5027631;28;19933;-66
2021/09/04 05:34:52;;;;;;;;;;;;;;;;;;5030239;28;19933;-66
2021/09/04 05:37:19;;;;;;;;;;;;;;;;;;5032356;28;20024;-66
2021/09/04 05:39:46;;;;;;;;;;;;;;;;;;5033118;28;19940;-66
2021/09/04 05:42:13;;;;;;;;;;;;;;;;;;5027566;28;20103;-66
2021/09/04 05:44:40;;;;;;;;;;;;;;;;;;5027887;28;19926;-66
2021/09/04 05:47:07;;;;;;;;;;;;;;;;;;5031773;28;20024;-66
2021/09/04 05:49:33;;;;;;;;;;;;;;;;;;5032740;28;19931;-67
2021/09/04 05:52:00;;;;;;;;;;;;;;;;;;5028035;28;19936;-67
2021/09/04 05:54:27;;;;;;;;;;;;;;;;;;5034708;28;19925;-66
2021/09/04 05:56:54;;;;;;;;;;;;;;;;;;5026955;28;19955;-65
2021/09/04 05:59:21;;;;;;;;;;;;;;;;;;5028656;28;20626;-66
2021/09/04 06:01:48;;;;;;;;;;;;;;;;;;5026183;28;19925;-67
2021/09/04 06:04:15;;;;;;;;;;;;;;;;;;5024890;28;19925;-67
2021/09/04 06:06:42;;;;;;;;;;;;;;;;;;5031954;28;20433;-67
2021/09/04 06:09:09;;;;;;;;;;;;;;;;;;5024665;28;19925;-66
2021/09/04 06:11:36;;;;;;;;;;;;;;;;;;5032101;28;19925;-67
2021/09/04 06:14:03;;;;;;;;;;;;;;;;;;5030042;28;19933;-67
2021/09/04 06:16:30;;;;;;;;;;;;;;;;;;5025034;28;19994;-66
2021/09/04 06:18:57;;;;;;;;;;;;;;;;;;5028564;28;19932;-66
2021/09/04 06:21:24;;;;;;;;;;;;;;;;;;5032852;28;20308;-64
2021/09/04 06:23:51;;;;;;;;;;;;;;;;;;5027302;28;19925;-66
2021/09/04 06:26:18;;;;;;;;;;;;;;;;;;5028938;28;19929;-65
2021/09/04 06:28:45;;;;;;;;;;;;;;;;;;5026340;28;19933;-64
2021/09/04 06:31:12;;;;;;;;;;;;;;;;;;5022268;28;20288;-66
2021/09/04 06:33:39;;;;;;;;;;;;;;;;;;5019870;28;20426;-65
2021/09/04 06:36:06;;;;;;;;;;;;;;;;;;5030685;28;19932;-65
2021/09/04 06:38:33;;;;;;;;;;;;;;;;;;5026983;28;19935;-67
2021/09/04 06:41:00;;;;;;;;;;;;;;;;;;5028641;28;19925;-64
2021/09/04 06:43:27;;;;;;;;;;;;;;;;;;5020849;28;20317;-64
2021/09/04 06:45:54;;;;;;;;;;;;;;;;;;5024365;28;19931;-66
2021/09/04 06:48:21;;;;;;;;;;;;;;;;;;5025612;28;19931;-66
2021/09/04 06:50:48;;;;;;;;;;;;;;;;;;5022226;28;19963;-66
2021/09/04 06:53:15;;;;;;;;;;;;;;;;;;5019584;28;19972;-66
2021/09/04 06:55:42;;;;;;;;;;;;;;;;;;5019666;28;19989;-67
2021/09/04 06:58:09;;;;;;;;;;;;;;;;;;5023200;28;20308;-66
2021/09/04 07:00:36;;;;;;;;;;;;;;;;;;5027702;28;19960;-66
2021/09/04 07:03:03;;;;;;;;;;;;;;;;;;5017696;28;20396;-65
2021/09/04 07:05:30;;;;;;;;;;;;;;;;;;5022244;28;20316;-65
2021/09/04 07:07:57;;;;;;;;;;;;;;;;;;5020729;28;19939;-65
2021/09/04 07:10:24;;;;;;;;;;;;;;;;;;5023178;28;19955;-65
2021/09/04 07:12:51;;;;;;;;;;;;;;;;;;5026916;28;20305;-65
2021/09/04 07:15:18;;;;;;;;;;;;;;;;;;5024436;28;19983;-65
2021/09/04 07:17:45;;;;;;;;;;;;;;;;;;5025961;28;19981;-66
2021/09/04 07:20:12;;;;;;;;;;;;;;;;;;5024254;28;19929;-66
2021/09/04 07:22:39;;;;;;;;;;;;;;;;;;5023662;28;19925;-66
2021/09/04 07:25:06;;;;;;;;;;;;;;;;;;5027826;28;19925;-67
2021/09/04 07:27:33;;;;;;;;;;;;;;;;;;5025625;28;19933;-67
2021/09/04 07:30:00;;;;;;;;;;;;;;;;;;5024401;28;19933;-66
2021/09/04 07:32:27;;;;;;;;;;;;;;;;;;5023830;28;19936;-66
2021/09/04 07:34:54;;;;;;;;;;;;;;;;;;5023295;28;20349;-67
2021/09/04 07:37:20;;;;;;;;;;;;;;;;;;5023791;28;19925;-67
2021/09/04 07:39:48;;;;;;;;;;;;;;;;;;5018824;28;19926;-67
2021/09/04 07:42:15;;;;;;;;;;;;;;;;;;5026039;28;19926;-67
2021/09/04 07:44:41;;;;;;;;;;;;;;;;;;5021764;28;20305;-66
2021/09/04 07:47:08;;;;;;;;;;;;;;;;;;5024056;28;19979;-66
2021/09/04 07:49:35;;;;;;;;;;;;;;;;;;5027620;28;20312;-65
2021/09/04 07:52:02;;;;;;;;;;;;;;;;;;5021086;28;20036;-65
2021/09/04 07:54:29;;;;;;;;;;;;;;;;;;5019088;28;19925;-63
2021/09/04 07:56:56;;;;;;;;;;;;;;;;;;5027491;28;20057;-65
2021/09/04 07:59:23;;;;;;;;;;;;;;;;;;5019951;28;19940;-65
2021/09/04 08:01:50;;;;;;;;;;;;;;;;;;5027233;28;19992;-65
2021/09/04 08:04:17;;;;;;;;;;;;;;;;;;5025478;28;19932;-65
2021/09/04 08:06:44;;;;;;;;;;;;;;;;;;5028093;28;19933;-65
2021/09/04 08:09:11;;;;;;;;;;;;;;;;;;5020728;28;19933;-65
2021/09/04 08:11:38;;;;;;;;;;;;;;;;;;5024223;28;20257;-65
2021/09/04 08:14:05;;;;;;;;;;;;;;;;;;5027953;28;19932;-65
2021/09/04 08:16:32;;;;;;;;;;;;;;;;;;5024602;28;19930;-65
2021/09/04 08:18:59;;;;;;;;;;;;;;;;;;5026028;28;19925;-65
2021/09/04 08:21:26;;;;;;;;;;;;;;;;;;5024459;28;19925;-65
2021/09/04 08:23:53;;;;;;;;;;;;;;;;;;5022873;28;19936;-65
2021/09/04 08:26:20;;;;;;;;;;;;;;;;;;5022753;28;20600;-65
2021/09/04 08:28:47;;;;;;;;;;;;;;;;;;5023367;28;19987;-65
2021/09/04 08:31:14;;;;;;;;;;;;;;;;;;5023033;28;19932;-66
2021/09/04 08:33:41;;;;;;;;;;;;;;;;;;5028685;28;20671;-65
2021/09/04 08:36:08;;;;;;;;;;;;;;;;;;5024407;28;19933;-65
2021/09/04 08:38:34;;;;;;;;;;;;;;;;;;5026642;28;19945;-65
2021/09/04 08:41:01;;;;;;;;;;;;;;;;;;5028845;28;19980;-65
2021/09/04 08:43:28;;;;;;;;;;;;;;;;;;5027447;28;19948;-65
2021/09/04 08:45:55;;;;;;;;;;;;;;;;;;5022227;28;19925;-65
2021/09/04 08:48:22;;;;;;;;;;;;;;;;;;5029725;28;19932;-65
2021/09/04 08:50:49;;;;;;;;;;;;;;;;;;5020605;28;19925;-65
2021/09/04 08:53:16;;;;;;;;;;;;;;;;;;5017988;28;20281;-65
2021/09/04 08:55:43;;;;;;;;;;;;;;;;;;5021850;28;19939;-65
2021/09/04 08:58:10;;;;;;;;;;;;;;;;;;5026899;28;20392;-65
2021/09/04 09:00:37;;;;;;;;;;;;;;;;;;5028075;28;20027;-65
2021/09/04 09:03:04;;;;;;;;;;;;;;;;;;5024335;28;19929;-65
2021/09/04 09:05:31;;;;;;;;;;;;;;;;;;5022618;28;19932;-65
2021/09/04 09:07:58;;;;;;;;;;;;;;;;;;5029944;28;19932;-65
2021/09/04 09:10:25;;;;;;;;;;;;;;;;;;5021618;28;19968;-66
2021/09/04 09:12:52;;;;;;;;;;;;;;;;;;5023915;28;19925;-66
2021/09/04 09:15:19;;;;;;;;;;;;;;;;;;5024050;28;19981;-65
2021/09/04 09:17:46;;;;;;;;;;;;;;;;;;5022101;28;20451;-65
2021/09/04 09:20:14;;;;;;;;;;;;;;;;;;5021857;28;19965;-66
2021/09/04 09:22:41;;;;;;;;;;;;;;;;;;5019334;28;19926;-66
2021/09/04 09:25:08;;;;;;;;;;;;;;;;;;5025135;28;20018;-65
2021/09/04 09:27:35;;;;;;;;;;;;;;;;;;5021932;28;20401;-65
2021/09/04 09:30:02;;;;;;;;;;;;;;;;;;5020430;28;19926;-66
2021/09/04 09:32:29;;;;;;;;;;;;;;;;;;5024244;28;19925;-65
2021/09/04 09:34:56;;;;;;;;;;;;;;;;;;5023863;28;19935;-66
2021/09/04 09:37:23;;;;;;;;;;;;;;;;;;5027235;28;20498;-66
2021/09/04 09:39:50;;;;;;;;;;;;;;;;;;5017866;28;20405;-66
2021/09/04 09:42:19;;;;;;;;;;;;;;;;;;5040842;22;20762;-70
2021/09/04 09:44:46;;;;;;;;;;;;;;;;;;5023803;28;19926;-70
2021/09/04 09:47:13;;;;;;;;;;;;;;;;;;5025903;28;19925;-70
2021/09/04 09:49:40;;;;;;;;;;;;;;;;;;5016525;28;20332;-70
2021/09/04 09:52:09;;;;;;;;;;;;;;;;;;5023203;28;19929;-70
2021/09/04 09:54:36;;;;;;;;;;;;;;;;;;5026224;28;19933;-70
2021/09/04 09:57:03;;;;;;;;;;;;;;;;;;5024919;28;19931;-70
2021/09/04 09:59:30;;;;;;;;;;;;;;;;;;5020493;28;20393;-70
2021/09/04 10:01:57;;;;;;;;;;;;;;;;;;5023600;28;19929;-70
2021/09/04 10:04:24;;;;;;;;;;;;;;;;;;5032389;28;19925;-70
2021/09/04 10:06:51;;;;;;;;;;;;;;;;;;5026382;28;19931;-70
2021/09/04 10:09:18;;;;;;;;;;;;;;;;;;5025613;28;20024;-69
2021/09/04 10:11:45;;;;;;;;;;;;;;;;;;5026993;28;20012;-69
2021/09/04 10:14:12;;;;;;;;;;;;;;;;;;5027886;28;19925;-69
2021/09/04 10:16:39;;;;;;;;;;;;;;;;;;5022074;28;20316;-69
2021/09/04 10:19:06;;;;;;;;;;;;;;;;;;5028673;28;19925;-69
2021/09/04 10:21:37;;;;;;;;;;;;;;;;;;5023964;28;20401;-69
2021/09/04 10:24:04;;;;;;;;;;;;;;;;;;5027871;28;19933;-69
2021/09/04 10:26:31;;;;;;;;;;;;;;;;;;5024674;28;20347;-69
2021/09/04 10:28:58;;;;;;;;;;;;;;;;;;5027568;28;19957;-69
2021/09/04 10:31:25;;;;;;;;;;;;;;;;;;5025065;28;19925;-69
2021/09/04 10:33:52;;;;;;;;;;;;;;;;;;5024203;28;19925;-69
2021/09/04 10:36:20;;;;;;;;;;;;;;;;;;5028734;28;20353;-68
2021/09/04 10:38:47;;;;;;;;;;;;;;;;;;5020968;28;19925;-68
2021/09/04 10:41:14;;;;;;;;;;;;;;;;;;5027533;28;20020;-69
2021/09/04 10:43:41;;;;;;;;;;;;;;;;;;5022194;28;20459;-67
2021/09/04 10:46:08;;;;;;;;;;;;;;;;;;5023903;28;19925;-68
2021/09/04 10:48:35;;;;;;;;;;;;;;;;;;5025063;28;19933;-68
2021/09/04 10:51:02;;;;;;;;;;;;;;;;;;5021139;28;20293;-69
2021/09/04 10:53:29;;;;;;;;;;;;;;;;;;5030241;28;19951;-68
2021/09/04 10:55:56;;;;;;;;;;;;;;;;;;5031746;28;19925;-68
2021/09/04 10:58:23;;;;;;;;;;;;;;;;;;5026046;28;19929;-68
2021/09/04 11:00:50;;;;;;;;;;;;;;;;;;5025439;28;19937;-68
2021/09/04 11:03:17;;;;;;;;;;;;;;;;;;5030444;28;19932;-68
2021/09/04 11:05:44;;;;;;;;;;;;;;;;;;5021386;28;19933;-68
2021/09/04 11:08:11;;;;;;;;;;;;;;;;;;5021070;28;19936;-68
2021/09/04 11:10:38;;;;;;;;;;;;;;;;;;5025522;28;19975;-68
2021/09/04 11:13:05;;;;;;;;;;;;;;;;;;5022549;28;19925;-68
2021/09/04 11:15:32;;;;;;;;;;;;;;;;;;5019850;28;19929;-68
2021/09/04 11:17:59;;;;;;;;;;;;;;;;;;5018980;28;20314;-67
2021/09/04 11:20:26;;;;;;;;;;;;;;;;;;5023064;28;19925;-68
2021/09/04 11:22:53;;;;;;;;;;;;;;;;;;5030883;28;20008;-68
2021/09/04 11:25:20;;;;;;;;;;;;;;;;;;5020863;28;20282;-68
2021/09/04 11:27:47;;;;;;;;;;;;;;;;;;5024592;28;19932;-68
2021/09/04 11:30:13;;;;;;;;;;;;;;;;;;5023549;28;19932;-68
2021/09/04 11:32:40;;;;;;;;;;;;;;;;;;5024942;28;20024;-68
2021/09/04 11:35:07;;;;;;;;;;;;;;;;;;5030233;28;19925;-68
2021/09/04 11:37:34;;;;;;;;;;;;;;;;;;5026010;28;19926;-68
2021/09/04 11:40:01;;;;;;;;;;;;;;;;;;5026137;28;19925;-69
2021/09/04 11:42:28;;;;;;;;;;;;;;;;;;5024085;28;20019;-68
2021/09/04 11:44:55;;;;;;;;;;;;;;;;;;5026986;28;20023;-69
2021/09/04 11:47:22;;;;;;;;;;;;;;;;;;5028860;28;19936;-69
2021/09/04 11:49:49;;;;;;;;;;;;;;;;;;5021134;28;19925;-69
2021/09/04 11:52:16;;;;;;;;;;;;;;;;;;5026511;28;19929;-69
2021/09/04 11:54:43;;;;;;;;;;;;;;;;;;5025078;28;19926;-69
2021/09/04 11:57:10;;;;;;;;;;;;;;;;;;5024923;28;19929;-69
2021/09/04 11:59:37;;;;;;;;;;;;;;;;;;5029971;28;20296;-69
2021/09/04 12:02:05;;;;;;;;;;;;;;;;;;5028691;28;19933;-70
2021/09/04 12:04:32;;;;;;;;;;;;;;;;;;5022268;28;19925;-69
2021/09/04 12:06:59;;;;;;;;;;;;;;;;;;5026858;28;19929;-69
2021/09/04 12:09:26;;;;;;;;;;;;;;;;;;5026334;28;19932;-69
2021/09/04 12:11:53;;;;;;;;;;;;;;;;;;5020889;28;19957;-70
2021/09/04 12:14:20;;;;;;;;;;;;;;;;;;5024033;28;19925;-69
2021/09/04 12:16:47;;;;;;;;;;;;;;;;;;5024304;28;20403;-70
2021/09/04 12:19:14;;;;;;;;;;;;;;;;;;5021659;28;19925;-69
2021/09/04 12:21:41;;;;;;;;;;;;;;;;;;5022260;28;19929;-69
2021/09/04 12:24:08;;;;;;;;;;;;;;;;;;5026935;28;19932;-70
2021/09/04 12:26:35;;;;;;;;;;;;;;;;;;5021637;28;19941;-69
2021/09/04 12:29:01;;;;;;;;;;;;;;;;;;5022662;28;20429;-69
2021/09/04 12:31:28;;;;;;;;;;;;;;;;;;5020691;28;20297;-69
2021/09/04 12:33:57;;;;;;;;;;;;;;;;;;5022367;28;19936;-69
2021/09/04 12:36:24;;;;;;;;;;;;;;;;;;5024004;28;19925;-70
2021/09/04 12:38:51;;;;;;;;;;;;;;;;;;5021370;28;19929;-69
2021/09/04 12:41:18;;;;;;;;;;;;;;;;;;5021590;28;20373;-69
2021/09/04 12:43:45;;;;;;;;;;;;;;;;;;5025380;28;19964;-70
2021/09/04 12:46:12;;;;;;;;;;;;;;;;;;5026540;28;20381;-70
2021/09/04 12:48:39;;;;;;;;;;;;;;;;;;5025869;28;19925;-70
2021/09/04 12:51:06;;;;;;;;;;;;;;;;;;5022280;28;20035;-71
2021/09/04 12:53:33;;;;;;;;;;;;;;;;;;5026528;28;19932;-70
2021/09/04 12:56:00;;;;;;;;;;;;;;;;;;5019903;28;20381;-70
2021/09/04 12:58:27;;;;;;;;;;;;;;;;;;5023788;28;19925;-69
2021/09/04 13:00:54;;;;;;;;;;;;;;;;;;5021693;28;19925;-70
2021/09/04 13:03:21;;;;;;;;;;;;;;;;;;5022202;28;19930;-69
2021/09/04 13:05:48;;;;;;;;;;;;;;;;;;5017721;28;20012;-69
2021/09/04 13:08:15;;;;;;;;;;;;;;;;;;5024096;28;20457;-69
2021/09/04 13:10:42;;;;;;;;;;;;;;;;;;5019190;28;19932;-70
2021/09/04 13:13:09;;;;;;;;;;;;;;;;;;5029047;28;19932;-69
2021/09/04 13:15:37;;;;;;;;;;;;;;;;;;5020174;28;19936;-69
2021/09/04 13:18:04;;;;;;;;;;;;;;;;;;5023080;28;19925;-69
2021/09/04 13:20:31;;;;;;;;;;;;;;;;;;5020269;28;20368;-69
2021/09/04 13:22:58;;;;;;;;;;;;;;;;;;5024451;28;19925;-69
2021/09/04 13:25:25;;;;;;;;;;;;;;;;;;5023239;28;20385;-69
2021/09/04 13:27:52;;;;;;;;;;;;;;;;;;5027958;28;19925;-70
2021/09/04 13:30:19;;;;;;;;;;;;;;;;;;5024463;28;19929;-69
2021/09/04 13:32:46;;;;;;;;;;;;;;;;;;5024117;28;20377;-69
2021/09/04 13:35:13;;;;;;;;;;;;;;;;;;5019947;28;19925;-68
2021/09/04 13:37:40;;;;;;;;;;;;;;;;;;5027361;28;20400;-68
2021/09/04 13:40:07;;;;;;;;;;;;;;;;;;5021664;28;19929;-69
2021/09/04 13:42:34;;;;;;;;;;;;;;;;;;5029561;28;20027;-68
2021/09/04 13:45:01;;;;;;;;;;;;;;;;;;5026485;28;20296;-68
2021/09/04 13:47:28;;;;;;;;;;;;;;;;;;5029360;28;19972;-69
2021/09/04 13:49:55;;;;;;;;;;;;;;;;;;5026829;28;19960;-68
2021/09/04 13:52:22;;;;;;;;;;;;;;;;;;5030178;28;19925;-69
2021/09/04 13:54:49;;;;;;;;;;;;;;;;;;5022071;28;19929;-69
2021/09/04 13:57:16;;;;;;;;;;;;;;;;;;5024361;28;19951;-69
2021/09/04 13:59:43;;;;;;;;;;;;;;;;;;5024756;28;19936;-68
2021/09/04 14:02:10;;;;;;;;;;;;;;;;;;5027230;28;19936;-69
2021/09/04 14:04:37;;;;;;;;;;;;;;;;;;5027937;28;19932;-69
2021/09/04 14:07:04;;;;;;;;;;;;;;;;;;5025023;28;20294;-68
2021/09/04 14:09:32;;;;;;;;;;;;;;;;;;5024048;28;19976;-69
2021/09/04 14:11:59;;;;;;;;;;;;;;;;;;5024710;28;20023;-69
2021/09/04 14:14:26;;;;;;;;;;;;;;;;;;5025796;28;19925;-68
2021/09/04 14:16:53;;;;;;;;;;;;;;;;;;5025879;28;19929;-70
2021/09/04 14:19:20;;;;;;;;;;;;;;;;;;5024957;28;19933;-69
2021/09/04 14:21:47;;;;;;;;;;;;;;;;;;5021413;28;19926;-68
2021/09/04 14:24:14;;;;;;;;;;;;;;;;;;5025524;28;19935;-69
2021/09/04 14:26:41;;;;;;;;;;;;;;;;;;5029576;28;19926;-69
2021/09/04 14:29:08;;;;;;;;;;;;;;;;;;5023733;28;19937;-68
2021/09/04 14:31:35;;;;;;;;;;;;;;;;;;5028502;28;19925;-70
2021/09/04 14:34:02;;;;;;;;;;;;;;;;;;5029562;28;19948;-68
2021/09/04 14:36:29;;;;;;;;;;;;;;;;;;5020437;28;20382;-68
2021/09/04 14:38:56;;;;;;;;;;;;;;;;;;5026285;28;19929;-68
2021/09/04 14:41:23;;;;;;;;;;;;;;;;;;5024697;28;20004;-68
2021/09/04 14:43:50;;;;;;;;;;;;;;;;;;5024938;28;20286;-69
2021/09/04 14:46:17;;;;;;;;;;;;;;;;;;5026915;28;19925;-68
2021/09/04 14:48:44;;;;;;;;;;;;;;;;;;5027210;28;19940;-68
2021/09/04 14:51:11;;;;;;;;;;;;;;;;;;5027418;28;20411;-68
2021/09/04 14:53:38;;;;;;;;;;;;;;;;;;5023440;28;20026;-68
2021/09/04 14:56:05;;;;;;;;;;;;;;;;;;5023866;28;19936;-69
2021/09/04 14:58:32;;;;;;;;;;;;;;;;;;5022889;28;19925;-68
2021/09/04 15:00:59;;;;;;;;;;;;;;;;;;5025652;28;19932;-68
2021/09/04 15:03:26;;;;;;;;;;;;;;;;;;5023413;28;19925;-68
2021/09/04 15:05:53;;;;;;;;;;;;;;;;;;5028747;28;19929;-68
2021/09/04 15:08:20;;;;;;;;;;;;;;;;;;5023574;28;19932;-68
2021/09/04 15:10:47;;;;;;;;;;;;;;;;;;5023118;28;19925;-68
2021/09/04 15:13:14;;;;;;;;;;;;;;;;;;5024157;28;20286;-68
2021/09/04 15:15:41;;;;;;;;;;;;;;;;;;5020748;28;20620;-69
2021/09/04 15:18:08;;;;;;;;;;;;;;;;;;5019399;28;19932;-69
2021/09/04 15:20:34;;;;;;;;;;;;;;;;;;5022048;28;19932;-69
2021/09/04 15:23:03;;;;;;;;;;;;;;;;;;5023946;28;19936;-69
2021/09/04 15:25:30;;;;;;;;;;;;;;;;;;5025409;28;19929;-69
2021/09/04 15:27:57;;;;;;;;;;;;;;;;;;5025089;28;19925;-69
2021/09/04 15:30:23;;;;;;;;;;;;;;;;;;5019107;28;19940;-69
2021/09/04 15:32:50;;;;;;;;;;;;;;;;;;5020917;28;20274;-69
2021/09/04 15:35:17;;;;;;;;;;;;;;;;;;5024081;28;19925;-68
2021/09/04 15:37:44;;;;;;;;;;;;;;;;;;5020262;28;19952;-69
2021/09/04 15:40:11;;;;;;;;;;;;;;;;;;5026501;28;19935;-69
2021/09/04 15:42:38;;;;;;;;;;;;;;;;;;5023910;28;19925;-69
2021/09/04 15:45:05;;;;;;;;;;;;;;;;;;5026472;28;19931;-70
2021/09/04 15:47:32;;;;;;;;;;;;;;;;;;5028697;28;20397;-70
2021/09/04 15:49:59;;;;;;;;;;;;;;;;;;5026266;28;19925;-71
2021/09/04 15:52:27;;;;;;;;;;;;;;;;;;5025591;28;19931;-71
2021/09/04 15:54:54;;;;;;;;;;;;;;;;;;5021620;28;19932;-71
2021/09/04 15:57:21;;;;;;;;;;;;;;;;;;5025217;28;19940;-70
2021/09/04 15:59:48;;;;;;;;;;;;;;;;;;5025078;28;19925;-70
2021/09/04 16:02:15;;;;;;;;;;;;;;;;;;5025592;28;19931;-70
2021/09/04 16:04:42;;;;;;;;;;;;;;;;;;5023248;28;19925;-70
2021/09/04 16:07:09;;;;;;;;;;;;;;;;;;5023761;28;19932;-70
2021/09/04 16:09:38;;;;;;;;;;;;;;;;;;5023282;28;19929;-70
2021/09/04 16:12:05;;;;;;;;;;;;;;;;;;5025131;28;20503;-71
2021/09/04 16:14:32;;;;;;;;;;;;;;;;;;5023927;28;19925;-70
2021/09/04 16:16:59;;;;;;;;;;;;;;;;;;5028283;28;19929;-71
2021/09/04 16:19:26;;;;;;;;;;;;;;;;;;5019490;28;19936;-70
2021/09/04 16:21:53;;;;;;;;;;;;;;;;;;5023077;28;19976;-71
2021/09/04 16:24:20;;;;;;;;;;;;;;;;;;5020090;28;19929;-69
2021/09/04 16:26:47;;;;;;;;;;;;;;;;;;5022429;28;19978;-70
2021/09/04 16:29:14;;;;;;;;;;;;;;;;;;5025348;28;19929;-72
2021/09/04 16:31:40;;;;;;;;;;;;;;;;;;5025346;28;19925;-70
2021/09/04 16:34:07;;;;;;;;;;;;;;;;;;5023048;28;19933;-68
2021/09/04 16:36:34;;;;;;;;;;;;;;;;;;5026381;28;19932;-68
2021/09/04 16:39:01;;;;;;;;;;;;;;;;;;5023921;28;19936;-70
2021/09/04 16:41:28;;;;;;;;;;;;;;;;;;5024105;28;19932;-70
2021/09/04 16:43:55;;;;;;;;;;;;;;;;;;5025160;28;19940;-70